Time;durP1;ratioP1;P1;durP2;ratioP2;P2;SDS_P1;SDS_P2;PMS_P1;PMS_P2;Temp;Humidity;BMP_temperature;BMP_pressure;BME280_temperature;BME280_humidity;BME280_pressure;Samples;Min_cycle;Max_cycle;Signal;HPM_P1;HPM_P2
2022/05/08 00:00:32;;;;;;;2.70;1.60;;;23.60;50.90;;;;;;5031425;28;20035;-76
2022/05/08 00:02:58;;;;;;;2.25;1.65;;;23.60;50.90;;;;;;5031697;28;20033;-76
2022/05/08 00:05:24;;;;;;;2.33;1.50;;;23.60;50.90;;;;;;5032034;28;20489;-76
2022/05/08 00:07:50;;;;;;;3.28;2.13;;;23.60;50.90;;;;;;5032068;28;20033;-76
2022/05/08 00:10:16;;;;;;;3.67;1.67;;;23.60;50.90;;;;;;5014240;28;20025;-76
2022/05/08 00:12:42;;;;;;;2.35;1.60;;;23.60;50.90;;;;;;5014024;28;20029;-76
2022/05/08 00:15:09;;;;;;;2.47;1.80;;;23.60;50.90;;;;;;4998309;28;20029;-76
2022/05/08 00:17:34;;;;;;;2.28;1.63;;;23.60;50.90;;;;;;5031884;28;20489;-76
2022/05/08 00:20:06;;;;;;;2.53;1.50;;;23.60;50.90;;;;;;5030523;28;20037;-76
2022/05/08 00:22:32;;;;;;;3.08;1.80;;;23.60;50.90;;;;;;5031836;28;20037;-76
2022/05/08 00:25:02;;;;;;;3.50;1.65;;;23.60;50.90;;;;;;5013980;28;20029;-76
2022/05/08 00:27:30;;;;;;;3.15;1.77;;;23.60;50.90;;;;;;5031765;28;20021;-76
2022/05/08 00:29:56;;;;;;;1.75;1.33;;;23.60;50.90;;;;;;5031318;28;20060;-76
2022/05/08 00:32:22;;;;;;;2.40;1.77;;;23.60;50.90;;;;;;5014170;28;20112;-76
2022/05/08 00:34:48;;;;;;;3.00;1.98;;;23.60;50.80;;;;;;5031123;28;20029;-76
2022/05/08 00:37:14;;;;;;;2.15;1.55;;;23.60;50.80;;;;;;5031689;28;20079;-76
2022/05/08 00:39:40;;;;;;;2.00;1.70;;;23.60;51.30;;;;;;5031520;28;20124;-76
2022/05/08 00:42:07;;;;;;;2.45;1.67;;;23.60;50.80;;;;;;5031538;28;20482;-76
2022/05/08 00:44:32;;;;;;;3.30;1.58;;;23.60;50.80;;;;;;5013644;28;20037;-76
2022/05/08 00:46:58;;;;;;;2.63;1.70;;;23.60;50.80;;;;;;5031477;28;20509;-76
2022/05/08 00:49:24;;;;;;;2.13;1.65;;;23.60;50.80;;;;;;5031114;28;20036;-76
2022/05/08 00:51:49;;;;;;;2.78;1.75;;;23.60;50.80;;;;;;5031548;28;20421;-76
2022/05/08 00:54:16;;;;;;;2.72;1.88;;;23.60;50.80;;;;;;5031033;28;20025;-76
2022/05/08 00:56:42;;;;;;;3.03;1.65;;;23.60;50.80;;;;;;5031263;28;20021;-76
2022/05/08 00:59:09;;;;;;;2.60;1.52;;;23.60;50.80;;;;;;5031419;28;20021;-76
2022/05/08 01:01:35;;;;;;;2.70;1.67;;;23.60;50.80;;;;;;5031150;28;20017;-76
2022/05/08 01:04:01;;;;;;;1.98;1.50;;;23.60;50.80;;;;;;5031032;28;20037;-76
2022/05/08 01:06:29;;;;;;;2.08;1.45;;;23.60;50.80;;;;;;5031265;28;20053;-76
2022/05/08 01:08:55;;;;;;;2.00;1.50;;;23.60;50.80;;;;;;5031216;28;20529;-76
2022/05/08 01:11:21;;;;;;;3.05;1.65;;;23.60;50.80;;;;;;5031846;28;20051;-76
2022/05/08 01:13:47;;;;;;;3.25;1.73;;;23.60;50.80;;;;;;5037437;28;20037;-76
2022/05/08 01:16:15;;;;;;;3.08;1.70;;;23.60;50.80;;;;;;5037925;28;20033;-76
2022/05/08 01:18:42;;;;;;;2.90;1.80;;;23.60;50.80;;;;;;5037809;28;20413;-76
2022/05/08 01:21:10;;;;;;;2.00;1.60;;;23.60;50.80;;;;;;5037832;28;20025;-76
2022/05/08 01:23:37;;;;;;;1.77;1.42;;;23.60;50.80;;;;;;5019600;28;20030;-76
2022/05/08 01:26:03;;;;;;;3.35;1.95;;;23.60;50.80;;;;;;5037638;28;20485;-76
2022/05/08 01:28:29;;;;;;;2.83;1.70;;;23.60;50.70;;;;;;5003576;28;20034;-76
2022/05/08 01:30:55;;;;;;;2.15;1.63;;;23.60;50.70;;;;;;5037306;28;20041;-76
2022/05/08 01:33:22;;;;;;;2.40;1.70;;;23.60;50.70;;;;;;5037250;28;20032;-76
2022/05/08 01:35:49;;;;;;;2.13;1.50;;;23.60;50.70;;;;;;5037706;28;20057;-76
2022/05/08 01:38:17;;;;;;;2.55;1.75;;;23.60;50.70;;;;;;5037707;28;20033;-76
2022/05/08 01:40:44;;;;;;;2.20;1.50;;;23.60;50.70;;;;;;5037554;28;20022;-76
2022/05/08 01:43:10;;;;;;;2.20;1.70;;;23.60;50.60;;;;;;5019571;28;20043;-76
2022/05/08 01:45:36;;;;;;;2.72;1.67;;;23.60;50.60;;;;;;5037438;28;20072;-76
2022/05/08 01:50:48;;;;;;;3.17;1.60;;;23.60;50.60;;;;;;5037373;28;20033;-76
2022/05/08 01:53:14;;;;;;;2.75;1.70;;;23.60;50.60;;;;;;5037196;28;20021;-75
2022/05/08 01:55:40;;;;;;;1.73;1.40;;;23.60;50.60;;;;;;5037269;28;20470;-76
2022/05/08 01:58:05;;;;;;;1.92;1.45;;;23.60;50.60;;;;;;5037242;28;20052;-75
2022/05/08 02:00:31;;;;;;;2.00;1.45;;;23.60;50.70;;;;;;5037194;28;20026;-76
2022/05/08 02:03:00;;;;;;;2.40;1.63;;;23.60;50.60;;;;;;5036040;28;20033;-76
2022/05/08 02:05:28;;;;;;;2.30;1.42;;;23.60;50.60;;;;;;5037376;28;20029;-76
2022/05/08 02:07:54;;;;;;;1.60;1.40;;;23.60;50.70;;;;;;5037359;28;20425;-76
2022/05/08 02:10:20;;;;;;;2.15;1.40;;;23.60;50.70;;;;;;5036883;28;20025;-76
2022/05/08 02:12:46;;;;;;;2.25;1.70;;;23.60;50.70;;;;;;5019485;28;20040;-76
2022/05/08 02:15:14;;;;;;;2.72;1.60;;;23.60;50.70;;;;;;5037242;28;20025;-76
2022/05/08 02:17:41;;;;;;;2.30;1.60;;;23.60;50.70;;;;;;5037338;28;20025;-76
2022/05/08 02:20:07;;;;;;;2.60;1.70;;;23.60;50.70;;;;;;5037138;28;20067;-76
2022/05/08 02:22:34;;;;;;;2.63;1.50;;;23.60;50.70;;;;;;5037415;28;20052;-76
2022/05/08 02:25:00;;;;;;;2.60;1.58;;;23.60;50.70;;;;;;5032980;28;20037;-76
2022/05/08 02:27:33;;;;;;;2.75;1.73;;;23.60;50.70;;;;;;5016792;28;20128;-76
2022/05/08 02:29:59;;;;;;;2.40;1.60;;;23.60;50.70;;;;;;5033908;28;20503;-76
2022/05/08 02:32:24;;;;;;;2.28;1.50;;;23.60;50.70;;;;;;5016255;28;20022;-76
2022/05/08 02:34:50;;;;;;;2.40;1.42;;;23.60;50.70;;;;;;5033519;28;20029;-76
2022/05/08 02:37:16;;;;;;;2.25;1.63;;;23.60;50.70;;;;;;5033915;28;20505;-76
2022/05/08 02:39:41;;;;;;;2.70;1.60;;;23.60;50.70;;;;;;5033569;28;20033;-76
2022/05/08 02:42:07;;;;;;;1.98;1.40;;;23.60;50.70;;;;;;5016326;28;20272;-76
2022/05/08 02:44:33;;;;;;;2.30;1.40;;;23.60;50.70;;;;;;5033525;28;20558;-76
2022/05/08 02:46:58;;;;;;;3.83;1.63;;;23.60;50.70;;;;;;5016476;28;20069;-76
2022/05/08 02:49:24;;;;;;;1.70;1.40;;;23.60;50.60;;;;;;5033578;28;20036;-76
2022/05/08 02:51:50;;;;;;;2.50;1.67;;;23.60;50.70;;;;;;5016001;28;20030;-75
2022/05/08 02:54:16;;;;;;;2.55;1.60;;;23.60;50.70;;;;;;5031926;28;20072;-76
2022/05/08 02:59:25;;;;;;;1.65;1.33;;;23.60;50.70;;;;;;5033450;28;20466;-76
2022/05/08 03:01:51;;;;;;;2.47;1.40;;;23.60;50.70;;;;;;5016011;28;20026;-76
2022/05/08 03:04:18;;;;;;;2.70;1.58;;;23.60;50.70;;;;;;4999528;28;20021;-75
2022/05/08 03:06:43;;;;;;;2.78;1.83;;;23.60;50.70;;;;;;4999518;28;20116;-76
2022/05/08 03:09:09;;;;;;;2.35;1.60;;;23.60;50.70;;;;;;5015352;28;20100;-76
2022/05/08 03:11:36;;;;;;;2.53;1.60;;;23.60;50.70;;;;;;5033057;28;20025;-76
2022/05/08 03:14:02;;;;;;;2.50;1.65;;;23.60;50.70;;;;;;5033200;28;20033;-76
2022/05/08 03:16:28;;;;;;;2.42;1.63;;;23.60;50.80;;;;;;5033105;28;20100;-76
2022/05/08 03:18:55;;;;;;;1.90;1.23;;;23.60;50.70;;;;;;5033058;28;20044;-76
2022/05/08 03:21:22;;;;;;;2.15;1.40;;;23.60;50.80;;;;;;5015327;28;20037;-76
2022/05/08 03:23:48;;;;;;;2.08;1.50;;;23.60;50.80;;;;;;5032544;28;20026;-76
2022/05/08 03:26:14;;;;;;;1.98;1.50;;;23.60;50.70;;;;;;5033135;28;20025;-76
2022/05/08 03:28:41;;;;;;;2.72;1.52;;;23.60;50.70;;;;;;5031860;28;20037;-76
2022/05/08 03:31:08;;;;;;;1.85;1.33;;;23.60;51.30;;;;;;5014937;28;20033;-76
2022/05/08 03:33:36;;;;;;;2.60;1.58;;;23.60;50.80;;;;;;5032685;28;20108;-76
2022/05/08 03:36:02;;;;;;;2.03;1.50;;;23.60;50.80;;;;;;5013786;28;20030;-76
2022/05/08 03:38:28;;;;;;;4.03;1.65;;;23.60;50.70;;;;;;5031496;28;20025;-76
2022/05/08 03:40:54;;;;;;;2.47;1.60;;;23.60;50.80;;;;;;5032425;28;20497;-76
2022/05/08 03:43:21;;;;;;;2.05;1.60;;;23.60;50.80;;;;;;5032498;28;20080;-76
2022/05/08 03:45:49;;;;;;;2.70;1.48;;;23.60;50.70;;;;;;5032592;28;20478;-76
2022/05/08 03:48:18;;;;;;;2.42;1.50;;;23.60;50.80;;;;;;5032662;28;20036;-75
2022/05/08 03:50:44;;;;;;;3.17;1.60;;;23.60;50.80;;;;;;5032306;28;20037;-76
2022/05/08 03:53:10;;;;;;;2.83;1.50;;;23.60;50.80;;;;;;5032043;28;20136;-76
2022/05/08 03:55:36;;;;;;;1.58;1.38;;;23.60;50.80;;;;;;5033270;28;20042;-75
2022/05/08 03:58:02;;;;;;;2.15;1.70;;;23.60;50.80;;;;;;5021044;28;20037;-76
2022/05/08 04:00:27;;;;;;;2.33;1.55;;;23.60;50.80;;;;;;5014601;28;20044;-76
2022/05/08 04:02:54;;;;;;;2.70;1.55;;;23.60;50.80;;;;;;5014484;28;20048;-75
2022/05/08 04:05:19;;;;;;;2.80;1.50;;;23.60;50.80;;;;;;5032127;28;20033;-76
2022/05/08 04:07:46;;;;;;;2.20;1.45;;;23.60;50.90;;;;;;5032230;28;20087;-76
2022/05/08 04:10:12;;;;;;;2.35;1.50;;;23.60;50.80;;;;;;5031897;28;20505;-76
2022/05/08 04:12:38;;;;;;;2.20;1.30;;;23.60;50.80;;;;;;5032025;28;20030;-76
2022/05/08 04:17:51;;;;;;;2.53;1.70;;;23.60;50.80;;;;;;5032133;28;20056;-76
2022/05/08 04:20:16;;;;;;;2.28;1.52;;;23.60;50.80;;;;;;5031809;28;20486;-76
2022/05/08 04:25:26;;;;;;;2.40;1.70;;;23.60;50.90;;;;;;5031741;28;20033;-76
2022/05/08 04:27:52;;;;;;;2.47;1.80;;;23.60;50.90;;;;;;5031706;28;20509;-75
2022/05/08 04:30:17;;;;;;;2.33;1.60;;;23.60;50.80;;;;;;5013768;28;20036;-75
2022/05/08 04:32:43;;;;;;;2.25;1.63;;;23.60;50.80;;;;;;5031658;28;20029;-75
2022/05/08 04:35:09;;;;;;;2.30;1.55;;;23.60;50.80;;;;;;5014053;28;20022;-75
2022/05/08 04:37:35;;;;;;;2.80;1.58;;;23.60;50.80;;;;;;5031467;28;20100;-76
2022/05/08 04:40:00;;;;;;;2.55;1.90;;;23.60;50.90;;;;;;5013910;28;20110;-75
2022/05/08 04:42:26;;;;;;;2.75;1.80;;;23.60;50.80;;;;;;5031642;28;20065;-76
2022/05/08 04:44:54;;;;;;;2.40;1.58;;;23.60;50.80;;;;;;5013500;28;20049;-75
2022/05/08 04:47:20;;;;;;;2.03;1.50;;;23.60;50.80;;;;;;5031321;28;20033;-76
2022/05/08 04:49:46;;;;;;;4.32;1.77;;;23.60;50.80;;;;;;5031446;28;20492;-75
2022/05/08 04:52:12;;;;;;;2.40;1.60;;;23.60;50.70;;;;;;5031232;28;20026;-76
2022/05/08 04:54:38;;;;;;;2.65;1.80;;;23.60;50.70;;;;;;5031259;28;20022;-75
2022/05/08 04:57:04;;;;;;;2.75;1.73;;;23.60;50.70;;;;;;5013626;28;20040;-75
2022/05/08 04:59:30;;;;;;;4.60;1.75;;;23.60;50.80;;;;;;5031186;28;20465;-76
2022/05/08 05:01:57;;;;;;;2.35;1.52;;;23.60;50.70;;;;;;5031368;28;20028;-75
2022/05/08 05:04:22;;;;;;;2.95;1.80;;;23.60;50.70;;;;;;5030980;28;20025;-75
2022/05/08 05:06:49;;;;;;;2.20;1.70;;;23.60;50.70;;;;;;5031216;28;20079;-75
2022/05/08 05:09:15;;;;;;;3.05;1.75;;;23.60;50.80;;;;;;5029311;28;20042;-76
2022/05/08 05:11:40;;;;;;;2.42;1.70;;;23.60;50.70;;;;;;5013592;28;20041;-76
2022/05/08 05:14:08;;;;;;;2.83;1.73;;;23.60;50.70;;;;;;5030932;28;20028;-76
2022/05/08 05:16:33;;;;;;;2.90;1.90;;;23.60;50.80;;;;;;5031110;28;20025;-75
2022/05/08 05:18:59;;;;;;;3.85;1.60;;;23.60;50.70;;;;;;5031068;28;20482;-76
2022/05/08 05:21:25;;;;;;;2.60;1.80;;;23.60;50.70;;;;;;5030946;28;20041;-76
2022/05/08 05:23:50;;;;;;;2.00;1.58;;;23.60;50.80;;;;;;5030822;28;20038;-76
2022/05/08 05:26:16;;;;;;;2.80;1.63;;;23.60;50.70;;;;;;5013105;28;20112;-76
2022/05/08 05:28:44;;;;;;;2.90;1.65;;;23.60;50.70;;;;;;5031021;28;20041;-75
2022/05/08 05:31:12;;;;;;;2.97;1.98;;;23.60;50.70;;;;;;5030774;28;20061;-75
2022/05/08 05:33:38;;;;;;;2.88;1.70;;;23.60;50.70;;;;;;5030961;28;20021;-75
2022/05/08 05:36:04;;;;;;;2.78;1.67;;;23.60;50.70;;;;;;5013284;28;20040;-75
2022/05/08 05:38:29;;;;;;;2.42;1.52;;;23.60;50.70;;;;;;5030845;28;20063;-75
2022/05/08 05:40:56;;;;;;;3.03;1.98;;;23.60;50.60;;;;;;5030781;28;20097;-75
2022/05/08 05:43:22;;;;;;;4.03;2.00;;;23.60;50.70;;;;;;5030577;28;20588;-75
2022/05/08 05:47:49;;;;;;;1.92;1.58;;;23.60;50.60;;;;;;5030902;28;20060;-75
2022/05/08 05:48:37;;;;;;;2.17;1.60;;;23.60;50.60;;;;;;5030756;28;20030;-76
2022/05/08 05:51:05;;;;;;;4.05;1.75;;;23.60;50.60;;;;;;5030654;28;20033;-76
2022/05/08 05:53:31;;;;;;;7.05;1.98;;;23.60;50.60;;;;;;5030462;28;20025;-76
2022/05/08 05:55:58;;;;;;;3.40;2.00;;;23.60;50.60;;;;;;5029989;28;20052;-75
2022/05/08 05:58:23;;;;;;;3.30;2.00;;;23.60;50.60;;;;;;5029909;28;20075;-75
2022/05/08 06:00:49;;;;;;;3.00;1.90;;;23.60;50.60;;;;;;5016860;28;20025;-76
2022/05/08 06:03:17;;;;;;;3.08;1.98;;;23.70;50.60;;;;;;5034091;28;20444;-76
2022/05/08 06:05:43;;;;;;;4.03;1.80;;;23.60;50.60;;;;;;5016617;28;20034;-75
2022/05/08 06:08:09;;;;;;;3.78;2.00;;;23.70;50.60;;;;;;5034354;28;20040;-76
2022/05/08 06:10:35;;;;;;;3.72;2.15;;;23.70;50.60;;;;;;5016550;28;20033;-76
2022/05/08 06:13:01;;;;;;;3.75;1.98;;;23.60;50.50;;;;;;5034543;28;20033;-76
2022/05/08 06:15:27;;;;;;;3.13;1.98;;;23.60;50.50;;;;;;5034677;28;20021;-75
2022/05/08 06:17:53;;;;;;;3.70;2.05;;;23.60;50.50;;;;;;5034703;28;20492;-76
2022/05/08 06:20:18;;;;;;;3.53;1.92;;;23.60;50.50;;;;;;5032840;28;20493;-75
2022/05/08 06:22:45;;;;;;;4.30;2.00;;;23.60;50.50;;;;;;5033975;28;20029;-75
2022/05/08 06:25:12;;;;;;;3.97;2.08;;;23.60;50.60;;;;;;5033070;28;20033;-75
2022/05/08 06:27:38;;;;;;;4.38;1.92;;;23.60;50.60;;;;;;5016249;28;20397;-74
2022/05/08 06:30:05;;;;;;;2.85;1.90;;;23.60;50.60;;;;;;5016313;28;20030;-75
2022/05/08 06:32:30;;;;;;;3.30;1.70;;;23.60;51.20;;;;;;5033881;28;20035;-76
2022/05/08 06:34:56;;;;;;;4.28;2.33;;;23.70;50.70;;;;;;4999688;28;20033;-74
2022/05/08 06:37:22;;;;;;;3.33;1.90;;;23.60;50.60;;;;;;5016162;28;20033;-76
2022/05/08 06:39:48;;;;;;;3.95;1.85;;;23.60;50.60;;;;;;5033865;28;20048;-76
2022/05/08 06:42:13;;;;;;;3.60;2.00;;;23.60;50.70;;;;;;5033599;28;20036;-74
2022/05/08 06:44:45;;;;;;;3.45;1.70;;;23.60;50.70;;;;;;4999629;28;20033;-75
2022/05/08 06:47:11;;;;;;;5.80;2.22;;;23.60;50.70;;;;;;5033596;28;20440;-74
2022/05/08 06:49:37;;;;;;;2.88;1.73;;;23.60;50.70;;;;;;5033300;28;20057;-74
2022/05/08 06:52:03;;;;;;;3.30;1.75;;;23.70;50.80;;;;;;5016256;28;20481;-75
2022/05/08 06:54:28;;;;;;;4.90;2.00;;;23.60;50.60;;;;;;5033387;28;20087;-76
2022/05/08 06:56:56;;;;;;;2.50;1.70;;;23.70;50.60;;;;;;5033509;28;20033;-75
2022/05/08 07:02:08;;;;;;;3.88;2.20;;;23.70;50.70;;;;;;5015733;28;20101;-75
2022/05/08 07:04:34;;;;;;;3.53;2.20;;;23.70;50.80;;;;;;5033057;28;20018;-74
2022/05/08 07:07:00;;;;;;;3.75;2.17;;;23.70;50.80;;;;;;5033360;28;20036;-75
2022/05/08 07:09:26;;;;;;;3.17;1.73;;;23.70;50.80;;;;;;5015037;28;20026;-74
2022/05/08 07:11:52;;;;;;;3.50;1.77;;;23.70;51.00;;;;;;5015607;28;20021;-76
2022/05/08 07:14:18;;;;;;;3.72;1.88;;;23.70;51.00;;;;;;5032881;28;20434;-75
2022/05/08 07:16:44;;;;;;;3.17;1.88;;;23.70;51.00;;;;;;5032098;28;20030;-75
2022/05/08 07:19:10;;;;;;;4.00;2.28;;;23.70;50.90;;;;;;5015364;28;20075;-76
2022/05/08 07:21:36;;;;;;;3.45;1.95;;;23.70;51.10;;;;;;5033202;28;20494;-74
2022/05/08 07:24:03;;;;;;;3.95;1.70;;;23.70;51.00;;;;;;4998796;28;20135;-75
2022/05/08 07:26:28;;;;;;;2.85;1.70;;;23.70;51.00;;;;;;5015254;28;20072;-75
2022/05/08 07:28:54;;;;;;;3.35;1.75;;;23.70;51.10;;;;;;5015186;28;20084;-76
2022/05/08 07:31:20;;;;;;;4.32;2.10;;;23.70;51.10;;;;;;5032586;28;20036;-74
2022/05/08 07:33:46;;;;;;;4.88;2.40;;;23.70;51.10;;;;;;5032549;28;20494;-75
2022/05/08 07:36:14;;;;;;;3.85;2.00;;;23.70;51.10;;;;;;5015202;28;20470;-76
2022/05/08 07:38:45;;;;;;;2.92;1.95;;;23.80;51.20;;;;;;5015317;28;20055;-76
2022/05/08 07:41:15;;;;;;;3.75;2.15;;;23.80;51.10;;;;;;5015039;28;20038;-76
2022/05/08 07:43:47;;;;;;;3.38;1.98;;;23.80;51.20;;;;;;5032388;28;20036;-75
2022/05/08 07:46:14;;;;;;;3.42;1.75;;;23.80;51.20;;;;;;5014675;28;20038;-76
2022/05/08 07:48:40;;;;;;;4.07;2.10;;;23.80;51.30;;;;;;4998596;28;20037;-76
2022/05/08 07:51:06;;;;;;;5.03;2.50;;;23.80;51.10;;;;;;5014640;28;20509;-75
2022/05/08 07:53:32;;;;;;;3.20;2.00;;;23.80;51.00;;;;;;5032378;28;20021;-76
2022/05/08 07:55:59;;;;;;;3.38;1.75;;;23.80;51.00;;;;;;4998651;28;20087;-75
2022/05/08 07:58:31;;;;;;;2.38;1.65;;;23.80;51.10;;;;;;5032365;28;20087;-76
2022/05/08 08:00:57;;;;;;;2.97;1.92;;;23.80;50.90;;;;;;4998264;28;20510;-75
2022/05/08 08:03:26;;;;;;;3.63;2.30;;;23.80;51.00;;;;;;4997898;28;20064;-75
2022/05/08 08:05:52;;;;;;;3.60;2.17;;;23.80;51.30;;;;;;5032426;28;20033;-75
2022/05/08 08:08:21;;;;;;;3.08;1.95;;;23.80;51.10;;;;;;5032039;28;20398;-76
2022/05/08 08:10:47;;;;;;;3.23;1.83;;;23.80;51.10;;;;;;5032116;28;20025;-75
2022/05/08 08:13:13;;;;;;;4.22;2.20;;;23.80;51.10;;;;;;5031793;28;20268;-75
2022/05/08 08:15:44;;;;;;;3.95;1.70;;;23.80;51.20;;;;;;4998459;28;20398;-76
2022/05/08 08:18:11;;;;;;;3.22;1.95;;;23.80;51.10;;;;;;5014398;28;20037;-76
2022/05/08 08:20:38;;;;;;;3.47;2.17;;;23.80;51.10;;;;;;5014373;28;20113;-76
2022/05/08 08:23:04;;;;;;;4.80;2.10;;;23.80;51.20;;;;;;5013707;28;20037;-75
2022/05/08 08:25:30;;;;;;;3.85;2.00;;;23.80;51.30;;;;;;4997908;28;20041;-76
2022/05/08 08:27:57;;;;;;;4.10;1.90;;;23.80;51.30;;;;;;5031776;28;20060;-76
2022/05/08 08:30:25;;;;;;;4.93;2.40;;;23.80;51.30;;;;;;5013903;28;20033;-75
2022/05/08 08:32:51;;;;;;;3.03;1.92;;;23.80;51.30;;;;;;5030307;28;20036;-76
2022/05/08 08:35:17;;;;;;;3.78;2.00;;;23.80;51.20;;;;;;5031514;28;20025;-76
2022/05/08 08:37:42;;;;;;;4.20;2.10;;;23.80;51.30;;;;;;5014268;28;20029;-75
2022/05/08 08:40:09;;;;;;;3.60;1.90;;;23.80;51.40;;;;;;5031560;28;20037;-77
2022/05/08 08:42:40;;;;;;;3.50;2.05;;;23.80;51.30;;;;;;5014126;28;20354;-76
2022/05/08 08:48:05;;;;;;;4.88;2.08;;;23.80;51.30;;;;;;5014288;28;20033;-75
2022/05/08 08:50:32;;;;;;;2.83;1.90;;;23.80;51.30;;;;;;5031218;28;20037;-76
2022/05/08 08:52:59;;;;;;;3.88;1.80;;;23.80;51.20;;;;;;5031234;28;20061;-76
2022/05/08 08:55:26;;;;;;;3.75;1.98;;;23.80;51.20;;;;;;5013768;28;20025;-76
2022/05/08 08:57:52;;;;;;;3.55;1.90;;;23.80;51.10;;;;;;4997378;28;20037;-76
2022/05/08 09:00:19;;;;;;;4.35;2.42;;;23.80;51.10;;;;;;5031301;28;20026;-77
2022/05/08 09:02:47;;;;;;;3.00;1.88;;;23.80;51.10;;;;;;5031225;28;20032;-76
2022/05/08 09:05:13;;;;;;;4.78;2.20;;;23.80;51.10;;;;;;5013664;28;20033;-76
2022/05/08 09:07:41;;;;;;;3.22;1.95;;;23.80;51.10;;;;;;5013820;28;20159;-75
2022/05/08 09:10:10;;;;;;;3.28;1.85;;;23.80;51.10;;;;;;5031375;28;20029;-76
2022/05/08 09:12:40;;;;;;;4.13;1.95;;;23.80;51.20;;;;;;5031151;28;20021;-77
2022/05/08 09:15:19;;;;;;;;;;;23.80;51.80;;;;;;5013595;28;20025;-76
2022/05/08 09:17:46;;;;;;;3.70;2.08;;;23.90;51.20;;;;;;5029857;28;19909;-75
2022/05/08 09:20:30;;;;;;;3.90;2.17;;;23.80;51.30;;;;;;5013469;28;20029;-76
2022/05/08 09:23:07;;;;;;;4.00;1.90;;;23.90;51.30;;;;;;5013546;28;20061;-76
2022/05/08 09:25:52;;;;;;;3.47;1.80;;;23.80;51.30;;;;;;5031299;28;20030;-76
2022/05/08 09:28:24;;;;;;;3.95;2.05;;;23.80;51.20;;;;;;5031370;28;20065;-75
2022/05/08 09:30:54;;;;;;;3.80;1.90;;;23.80;51.20;;;;;;5056483;22;20048;-80
2022/05/08 09:33:22;;;;;;;4.05;1.80;;;23.90;51.30;;;;;;5075579;28;20123;-80
2022/05/08 09:35:48;;;;;;;3.22;1.90;;;23.80;51.30;;;;;;5096386;28;20035;-81
2022/05/08 09:38:13;;;;;;;3.72;1.90;;;23.80;51.30;;;;;;5096922;28;20472;-80
2022/05/08 09:40:39;;;;;;;4.15;1.83;;;23.80;51.20;;;;;;5096373;28;20179;-80
2022/05/08 09:43:05;;;;;;;3.35;1.70;;;23.80;51.20;;;;;;5046707;28;20052;-82
2022/05/08 09:45:31;;;;;;;4.60;1.90;;;23.80;51.20;;;;;;5081166;28;20544;-82
2022/05/08 09:47:57;;;;;;;3.22;1.83;;;23.90;51.30;;;;;;5099291;28;20107;-81
2022/05/08 09:50:23;;;;;;;3.47;1.77;;;23.80;51.40;;;;;;5080021;28;20036;-80
2022/05/08 09:52:49;;;;;;;2.97;2.00;;;23.90;51.30;;;;;;5080266;28;20031;-80
2022/05/08 09:55:18;;;;;;;4.40;1.80;;;23.90;51.30;;;;;;5081502;28;20023;-81
2022/05/08 09:57:44;;;;;;;3.50;1.77;;;23.90;51.30;;;;;;5099381;28;20104;-81
2022/05/08 10:00:11;;;;;;;4.63;2.15;;;23.90;51.20;;;;;;5098765;28;20084;-80
2022/05/08 10:02:43;;;;;;;3.80;1.90;;;23.90;51.20;;;;;;5079910;28;20043;-81
2022/05/08 10:05:09;;;;;;;3.78;1.90;;;23.90;51.20;;;;;;5079224;28;20421;-81
2022/05/08 10:07:38;;;;;;;2.67;1.88;;;23.90;51.20;;;;;;5098102;28;20024;-81
2022/05/08 10:15:40;;;;;;;3.13;1.77;;;23.80;51.10;;;;;;5079947;28;20436;-80
2022/05/08 10:18:26;;;;;;;2.83;1.65;;;23.80;51.10;;;;;;5098643;28;20016;-81
2022/05/08 10:21:01;;;;;;;3.08;1.73;;;23.90;51.20;;;;;;5064158;28;20032;-82
2022/05/08 10:23:41;;;;;;;2.85;1.88;;;23.90;51.20;;;;;;5062798;28;20059;-82
2022/05/08 10:26:22;;;;;;;4.30;1.90;;;23.90;51.20;;;;;;5097593;28;20077;-80
2022/05/08 10:29:13;;;;;;;3.80;1.80;;;23.90;51.30;;;;;;5079477;28;20031;-80
2022/05/08 10:31:50;;;;;;;2.58;1.60;;;23.90;51.20;;;;;;5079051;28;20035;-81
2022/05/08 10:34:31;;;;;;;3.40;1.98;;;23.90;51.20;;;;;;5079018;28;20031;-80
2022/05/08 10:37:12;;;;;;;2.80;1.73;;;23.90;51.20;;;;;;5099713;28;20499;-84
2022/05/08 10:39:42;;;;;;;3.75;1.83;;;23.80;51.10;;;;;;5047113;28;20120;-81
2022/05/08 10:42:23;;;;;;;2.88;1.58;;;23.90;51.20;;;;;;5079346;28;20027;-81
2022/05/08 10:44:50;;;;;;;4.43;2.08;;;23.80;51.10;;;;;;5076982;28;20043;-81
2022/05/08 10:47:33;;;;;;;2.85;1.58;;;23.80;51.10;;;;;;5077837;28;20032;-81
2022/05/08 10:50:05;;;;;;;4.88;2.10;;;23.80;51.10;;;;;;5076612;28;20495;-81
2022/05/08 10:52:37;;;;;;;2.35;1.67;;;23.80;51.10;;;;;;5076589;28;20400;-80
2022/05/08 10:55:08;;;;;;;5.13;1.88;;;23.80;51.10;;;;;;5076508;28;20028;-80
2022/05/08 10:57:38;;;;;;;3.67;1.80;;;23.90;51.10;;;;;;5076464;28;20035;-81
2022/05/08 11:00:05;;;;;;;3.58;2.00;;;23.90;51.10;;;;;;5094777;28;20158;-80
2022/05/08 11:02:57;;;;;;;3.40;2.00;;;23.90;51.10;;;;;;5077025;28;20039;-81
2022/05/08 11:05:31;;;;;;;5.03;1.73;;;23.90;51.00;;;;;;5060256;28;20035;-81
2022/05/08 11:08:00;;;;;;;5.38;1.90;;;23.80;51.10;;;;;;5076859;28;20028;-80
2022/05/08 11:10:34;;;;;;;3.15;1.65;;;23.90;51.20;;;;;;5076522;28;20032;-80
2022/05/08 11:13:05;;;;;;;3.00;1.77;;;23.90;51.00;;;;;;5093918;28;20071;-81
2022/05/08 11:15:35;;;;;;;3.50;1.85;;;23.80;50.90;;;;;;5094768;28;20097;-82
2022/05/08 11:18:08;;;;;;;2.30;1.50;;;23.90;51.10;;;;;;5094807;28;20020;-85
2022/05/08 11:20:43;;;;;;;2.80;1.63;;;23.80;51.20;;;;;;5094846;28;20028;-82
2022/05/08 11:23:13;;;;;;;2.75;1.63;;;23.80;51.00;;;;;;5094801;28;20035;-82
2022/05/08 11:25:39;;;;;;;;;;;23.80;51.00;;;;;;5060375;28;20039;-83
2022/05/08 11:28:11;;;;;;;4.10;1.50;;;23.80;51.00;;;;;;5094859;28;19908;-82
2022/05/08 11:30:37;;;;;;;3.13;1.67;;;23.80;51.10;;;;;;5093547;28;20032;-83
2022/05/08 11:36:05;;;;;;;3.28;1.75;;;23.80;51.10;;;;;;5093930;28;20020;-83
2022/05/08 11:38:45;;;;;;;2.88;1.70;;;23.80;51.00;;;;;;5093447;28;20373;-80
2022/05/08 11:41:14;;;;;;;4.40;2.10;;;23.80;51.00;;;;;;5093629;28;20035;-81
2022/05/08 11:43:44;;;;;;;2.65;1.55;;;23.80;51.00;;;;;;5075075;28;20081;-80
2022/05/08 11:46:15;;;;;;;3.00;1.70;;;23.80;51.10;;;;;;5075561;28;20032;-81
2022/05/08 11:48:42;;;;;;;3.72;1.90;;;23.80;51.10;;;;;;5093008;28;20358;-81
2022/05/08 11:51:12;;;;;;;2.63;1.50;;;23.80;51.20;;;;;;5075204;28;20107;-81
2022/05/08 11:53:45;;;;;;;2.83;1.70;;;23.80;51.00;;;;;;5093341;28;20111;-81
2022/05/08 11:56:27;;;;;;;3.10;1.80;;;23.80;51.10;;;;;;5092481;28;20012;-81
2022/05/08 11:58:58;;;;;;;2.55;1.73;;;23.80;51.00;;;;;;5093249;28;20073;-80
2022/05/08 12:01:26;;;;;;;2.10;1.42;;;23.80;50.80;;;;;;5093309;28;20028;-83
2022/05/08 12:03:53;;;;;;;3.30;1.60;;;23.80;51.00;;;;;;5058035;28;20059;-80
2022/05/08 12:06:19;;;;;;;3.00;1.50;;;23.80;51.00;;;;;;5092803;28;20437;-81
2022/05/08 12:08:45;;;;;;;3.13;1.60;;;23.80;50.80;;;;;;5075017;28;20028;-81
2022/05/08 12:11:33;;;;;;;3.85;1.90;;;23.80;50.70;;;;;;5058313;28;20028;-82
2022/05/08 12:14:00;;;;;;;3.42;1.83;;;23.80;50.80;;;;;;5074754;28;20032;-80
2022/05/08 12:16:26;;;;;;;3.70;1.90;;;23.80;51.00;;;;;;5093384;28;20058;-81
2022/05/08 12:19:20;;;;;;;3.78;1.98;;;23.80;50.90;;;;;;5093163;28;20039;-80
2022/05/08 12:21:46;;;;;;;2.30;1.60;;;23.80;50.80;;;;;;5092652;28;20067;-81
2022/05/08 12:24:14;;;;;;;3.55;1.80;;;23.80;50.90;;;;;;5074269;28;20035;-79
2022/05/08 12:26:39;;;;;;;3.92;1.67;;;23.80;50.70;;;;;;5074323;28;20039;-80
2022/05/08 12:29:20;;;;;;;4.13;1.88;;;23.80;50.90;;;;;;5092650;28;20032;-80
2022/05/08 12:31:46;;;;;;;3.30;1.73;;;23.80;51.00;;;;;;5074051;28;20024;-80
2022/05/08 12:34:13;;;;;;;2.25;1.75;;;23.80;51.20;;;;;;5057411;28;20693;-80
2022/05/08 12:36:40;;;;;;;2.67;1.70;;;23.80;51.00;;;;;;5074395;28;20026;-80
2022/05/08 12:39:06;;;;;;;3.45;1.70;;;23.80;50.80;;;;;;5074222;28;20485;-80
2022/05/08 12:41:33;;;;;;;2.95;1.40;;;23.80;50.90;;;;;;5074309;28;20039;-81
2022/05/08 12:44:00;;;;;;;3.67;1.73;;;23.80;50.80;;;;;;5057531;28;20038;-80
2022/05/08 12:46:26;;;;;;;3.25;1.60;;;23.80;50.80;;;;;;5074180;28;20032;-80
2022/05/08 12:48:51;;;;;;;3.85;1.60;;;23.80;51.00;;;;;;5091993;28;20031;-80
2022/05/08 12:51:17;;;;;;;3.70;1.88;;;23.80;51.00;;;;;;5091435;28;20111;-82
2022/05/08 12:53:43;;;;;;;3.22;1.60;;;23.80;51.00;;;;;;5091365;28;20016;-81
2022/05/08 12:56:09;;;;;;;2.88;1.60;;;23.80;51.00;;;;;;5092054;28;20496;-81
2022/05/08 13:01:19;;;;;;;2.95;1.70;;;23.80;50.70;;;;;;5091785;28;20031;-80
2022/05/08 13:03:45;;;;;;;3.38;1.77;;;23.80;50.60;;;;;;5091377;28;20024;-80
2022/05/08 13:06:11;;;;;;;2.53;1.50;;;23.80;51.00;;;;;;5056987;28;20099;-80
2022/05/08 13:08:37;;;;;;;2.97;1.60;;;23.80;50.80;;;;;;5091631;28;20034;-80
2022/05/08 13:11:02;;;;;;;2.33;1.35;;;23.80;50.70;;;;;;5091595;28;20032;-80
2022/05/08 13:13:34;;;;;;;3.15;1.50;;;23.80;51.00;;;;;;5073573;28;20020;-81
2022/05/08 13:16:00;;;;;;;2.50;1.50;;;23.80;50.70;;;;;;5092083;28;20484;-81
2022/05/08 13:18:26;;;;;;;3.33;1.63;;;23.80;50.60;;;;;;5073952;28;20081;-81